ADDS METAR Data INFO
IDs: Format: Raw Decoded Include TAF

Data at: 0142 UTC 18 Oct 2017

KPRX 180056Z AUTO 13004KT 10SM CLR 16/07 A3017 RMK AO2 SLP236 T01560067
KPRX 172356Z AUTO 13005KT 10SM CLR 19/06 A3016 RMK AO2 SLP231 T01890061 10233 20189 57010
KPRX 172256Z AUTO 12004KT 10SM CLR 21/06 A3017 RMK AO2 SLP232 T02110061
KPRX 172156Z AUTO 00000KT 10SM CLR 22/05 A3019 RMK AO2 SLP236 T02220050
KPRX 172056Z AUTO 13006KT 10SM CLR 22/05 A3019 RMK AO2 SLP238 T02220050 56035
KPRX 171956Z AUTO 12004KT 10SM CLR 22/06 A3022 RMK AO2 SLP249 T02220056
KPRX 171856Z AUTO 07004KT 10SM CLR 21/04 A3025 RMK AO2 SLP260 T02060044
KPRX 171832Z AUTO 04003KT 10SM CLR 20/05 A3027 RMK AO2
KPRX 171822Z AUTO 00000KT 2SM HZ CLR 19/04 A3028 RMK AO2
KPRX 171756Z AUTO VRB04KT 10SM CLR 19/04 A3030 RMK AO2 SLP275 T01940044 10200 20061 58017
KPRX 171656Z AUTO 13008KT 10SM CLR 19/04 A3033 RMK AO2 SLP287 T01890044
KPRX 171556Z AUTO 13010KT 10SM CLR 17/04 A3033 RMK AO2 SLP288 T01720044
KPRX 171456Z AUTO 11007KT 10SM CLR 14/06 A3035 RMK AO2 SLP293 T01440061 53010
KPRX 171356Z AUTO 10006KT 9SM CLR 11/07 A3033 RMK AO2 SLP289 T01060072
KPRX 171256Z AUTO 08004KT 10SM CLR 07/05 A3033 RMK AO2 SLP288 T00670050
KPRX 171156Z AUTO 08006KT 10SM CLR 07/04 A3032 RMK AO2 SLP283 T00670044 10100 20067 53004 TSNO
KPRX 171056Z AUTO 06004KT 10SM CLR 08/05 A3031 RMK AO2 SLP281 T00780050
KPRX 170956Z AUTO 09004KT 10SM CLR 07/05 A3030 RMK AO2 SLP277 T00720050
KPRX 170856Z AUTO 00000KT 10SM CLR 08/06 A3030 RMK AO2 SLP277 T00830056 50003
KPRX 170756Z AUTO 09004KT 10SM CLR 09/06 A3031 RMK AO2 SLP278 T00890056
KPRX 170656Z AUTO 10003KT 10SM CLR 09/06 A3030 RMK AO2 SLP277 T00940061
KPRX 170556Z AUTO 09005KT 10SM CLR 09/06 A3030 RMK AO2 SLP274 T00940061 10189 20089 402170072 58001
KPRX 170456Z AUTO 10003KT 10SM CLR 10/07 A3030 RMK AO2 SLP275 T01000067
KPRX 170356Z AUTO 35004KT 10SM CLR 11/07 A3030 RMK AO2 SLP277 T01060067
KPRX 170256Z AUTO 14003KT 10SM CLR 12/07 A3030 RMK AO2 SLP277 T01170072 51007
KPRX 170156Z AUTO 00000KT 10SM CLR 13/07 A3029 RMK AO2 SLP275 T01330072
KPRX 170056Z AUTO 34003KT 10SM CLR 15/07 A3028 RMK AO2 SLP273 T01500067
KPRX 170036Z AUTO 33004KT 10SM CLR 14/07 A3028 RMK AO2
KPRX 170027Z AUTO 02003KT 2SM HZ CLR 16/06 A3028 RMK AO2
KPRX 170011Z AUTO 03003KT 10SM CLR 18/05 A3028 RMK AO2
KPRX 170004Z AUTO 03004KT 2 1/2SM HZ CLR 19/04 A3028 RMK AO2
KPRX 170002Z AUTO 03004KT 3/4SM HZ CLR 19/04 A3028 RMK AO2
KPRX 162356Z AUTO 03003KT 1/4SM HZ CLR 19/05 A3028 RMK AO2 SLP269 T01890050 10217 20183 56005
KPRX 162350Z AUTO 04003KT 1/4SM HZ CLR 19/04 A3027 RMK AO2
KPRX 162342Z AUTO 04003KT 3/4SM HZ CLR 19/05 A3028 RMK AO2
KPRX 162339Z AUTO 04003KT 1 1/2SM HZ CLR 19/05 A3028 RMK AO2
KPRX 162256Z AUTO 01004KT 10SM CLR 21/05 A3028 RMK AO2 SLP268 T02060050
KPRX 162156Z AUTO 02007KT 10SM CLR 21/05 A3028 RMK AO2 SLP270 T02110050
KPRX 162135Z AUTO 03005KT 3SM HZ CLR 21/05 A3029 RMK AO2
KPRX 162123Z AUTO 36007KT 2SM HZ CLR 21/04 A3029 RMK AO2 VIS 1V5
KPRX 162114Z AUTO 02003KT 3SM HZ CLR 21/04 A3029 RMK AO2
KPRX 162109Z AUTO 04006KT 1 3/4SM HZ CLR 21/04 A3029 RMK AO2 VIS 3/4V5
KPRX 162056Z AUTO 36008KT 6SM HZ CLR 21/04 A3029 RMK AO2 SLP273 T02110044 56017 TSNO
KPRX 162051Z AUTO 35008KT 7SM CLR 21/04 A3029 RMK AO2
KPRX 162030Z AUTO 00000KT 2SM HZ CLR 21/03 A3030 RMK AO2 VIS 3/4V5
KPRX 161956Z AUTO 09005KT 10SM CLR 21/03 A3031 RMK AO2 SLP280 T02110033
KPRX 161856Z AUTO 02008KT 350V050 10SM CLR 21/03 A3034 RMK AO2 SLP290 T02060033
KPRX 161756Z AUTO 05008KT 10SM CLR 19/05 A3039 RMK AO2 SLP306 T01890050 10189 20072 58015
KPRX 161656Z AUTO 07009KT 10SM CLR 18/05 A3042 RMK AO2 SLP315 T01780050
KPRX 161556Z AUTO 08011G16KT 10SM CLR 17/06 A3043 RMK AO2 SLP320 T01670061
KPRX 161456Z AUTO 03005KT 10SM CLR 14/08 A3043 RMK AO2 SLP322 T01390078 53015
KPRX 161356Z AUTO 01007KT 10SM CLR 11/07 A3042 RMK AO2 SLP317 T01110067